Time;durP1;ratioP1;P1;durP2;ratioP2;P2;SDS_P1;SDS_P2;PMS_P1;PMS_P2;Temp;Humidity;BMP_temperature;BMP_pressure;BME280_temperature;BME280_humidity;BME280_pressure;Samples;Min_cycle;Max_cycle;Signal;HPM_P1;HPM_P2
2021/03/12 00:02:05;;;;;;;27.67;10.75;;;11.30;99.90;;;;;;5048443;28;20039;-67
2021/03/12 00:05:12;;;;;;;18.02;7.53;;;11.20;99.90;;;;;;5049532;28;20052;-66
2021/03/12 00:08:21;;;;;;;19.05;7.07;;;11.20;99.90;;;;;;5049646;28;20052;-67
2021/03/12 00:11:25;;;;;;;15.38;6.93;;;11.20;99.90;;;;;;5048910;28;20410;-67
2021/03/12 00:14:29;;;;;;;21.88;7.65;;;11.20;99.90;;;;;;5047908;28;20047;-67
2021/03/12 00:17:33;;;;;;;24.02;7.70;;;11.20;99.90;;;;;;5048752;28;20052;-67
2021/03/12 00:20:40;;;;;;;17.40;7.07;;;11.20;99.90;;;;;;5048228;28;20044;-67
2021/03/12 00:23:45;;;;;;;20.27;6.82;;;11.30;99.90;;;;;;5048936;28;20048;-67
2021/03/12 00:26:50;;;;;;;22.90;7.00;;;11.30;99.90;;;;;;5048971;28;20424;-67
2021/03/12 00:29:54;;;;;;;19.55;8.00;;;11.30;99.90;;;;;;5041634;28;20048;-67
2021/03/12 00:32:58;;;;;;;23.48;8.25;;;11.30;99.90;;;;;;5037918;28;20044;-66
2021/03/12 00:36:02;;;;;;;29.70;10.63;;;11.30;99.90;;;;;;5035148;28;20407;-67
2021/03/12 00:39:06;;;;;;;33.22;13.80;;;11.40;99.90;;;;;;5048909;28;20036;-67
2021/03/12 00:42:11;;;;;;;21.70;9.32;;;11.40;99.90;;;;;;5049007;28;20514;-67
2021/03/12 00:45:19;;;;;;;30.42;8.80;;;11.40;99.90;;;;;;5047705;28;20063;-67
2021/03/12 00:48:27;;;;;;;16.02;6.45;;;11.30;99.90;;;;;;5047848;28;20048;-67
2021/03/12 00:51:34;;;;;;;20.05;7.70;;;11.40;99.90;;;;;;5037432;28;20415;-66
2021/03/12 00:54:42;;;;;;;21.40;6.95;;;11.30;99.90;;;;;;5037708;28;20044;-67
2021/03/12 00:58:06;;;;;;;18.88;7.15;;;11.40;99.90;;;;;;5051622;28;20044;-67
2021/03/12 01:01:11;;;;;;;21.27;7.18;;;11.40;99.90;;;;;;5051539;28;20526;-67
2021/03/12 01:04:17;;;;;;;21.13;10.13;;;11.40;99.90;;;;;;5051063;28;20039;-67
2021/03/12 01:07:21;;;;;;;20.33;7.07;;;11.40;99.90;;;;;;5051681;28;20052;-67
2021/03/12 01:10:26;;;;;;;20.80;7.05;;;11.40;99.90;;;;;;5051512;28;20419;-66
2021/03/12 01:13:31;;;;;;;26.08;8.00;;;11.40;99.90;;;;;;5038807;28;20047;-67
2021/03/12 01:16:34;;;;;;;16.45;6.55;;;11.40;99.90;;;;;;5050913;28;20036;-67
2021/03/12 01:19:41;;;;;;;27.02;8.38;;;11.40;99.90;;;;;;5051160;28;20044;-67
2021/03/12 01:22:50;;;;;;;18.75;7.18;;;11.40;99.90;;;;;;5052007;28;20052;-67
2021/03/12 01:25:55;;;;;;;22.48;7.10;;;11.40;99.90;;;;;;5042320;28;20043;-67
2021/03/12 01:29:03;;;;;;;26.58;7.22;;;11.40;99.90;;;;;;5039276;28;20047;-67
2021/03/12 01:32:19;;;;;;;15.48;7.85;;;11.30;99.90;;;;;;5038250;28;20517;-67
2021/03/12 01:35:30;;;;;;;23.75;7.57;;;11.30;99.90;;;;;;5050848;28;20032;-67
2021/03/12 01:38:34;;;;;;;18.98;7.32;;;11.30;99.90;;;;;;5051243;28;20075;-67
2021/03/12 01:41:39;;;;;;;24.48;7.82;;;11.30;99.90;;;;;;5051644;28;20518;-67
2021/03/12 01:44:51;;;;;;;20.35;8.23;;;11.30;99.90;;;;;;5042688;28;20048;-67
2021/03/12 01:47:58;;;;;;;25.50;8.27;;;11.30;99.90;;;;;;5040325;28;20052;-66
2021/03/12 01:51:07;;;;;;;19.00;7.60;;;11.30;99.90;;;;;;5059274;28;20418;-67
2021/03/12 01:54:12;;;;;;;21.48;7.78;;;11.30;99.90;;;;;;5050385;28;20040;-67
2021/03/12 01:57:16;;;;;;;27.70;9.15;;;11.30;99.90;;;;;;5050386;28;20048;-67
2021/03/12 02:00:30;;;;;;;26.05;8.98;;;11.30;99.90;;;;;;5050798;28;20406;-67
2021/03/12 02:03:38;;;;;;;21.95;9.25;;;11.30;99.90;;;;;;5050065;28;20410;-67
2021/03/12 02:06:48;;;;;;;21.40;8.93;;;11.30;99.90;;;;;;5041232;28;20044;-67
2021/03/12 02:09:53;;;;;;;23.15;7.18;;;11.30;99.90;;;;;;5038841;28;20048;-67
2021/03/12 02:13:13;;;;;;;20.15;6.30;;;11.20;99.90;;;;;;5049977;28;20044;-67
2021/03/12 02:16:29;;;;;;;23.55;6.30;;;11.20;99.90;;;;;;5049766;28;20044;-67
2021/03/12 02:19:45;;;;;;;18.75;5.85;;;11.20;99.90;;;;;;5049950;28;20043;-67
2021/03/12 02:23:03;;;;;;;15.18;6.03;;;11.20;99.90;;;;;;5054696;28;20040;-67
2021/03/12 02:26:42;;;;;;;21.15;6.32;;;11.20;99.90;;;;;;5049731;28;20040;-67
2021/03/12 02:29:53;;;;;;;24.13;6.80;;;11.20;99.90;;;;;;5055871;28;20517;-67
2021/03/12 02:33:02;;;;;;;14.68;5.30;;;11.20;99.90;;;;;;5031572;28;20040;-67
2021/03/12 02:36:22;;;;;;;28.17;7.35;;;11.20;99.90;;;;;;5049820;28;20048;-66
2021/03/12 02:39:35;;;;;;;25.42;6.00;;;11.20;99.90;;;;;;5040924;28;20044;-67
2021/03/12 02:42:41;;;;;;;16.30;6.07;;;11.20;99.90;;;;;;5038186;28;20056;-67
2021/03/12 02:45:46;;;;;;;24.42;6.03;;;11.30;99.90;;;;;;5049503;28;20454;-67
2021/03/12 02:48:58;;;;;;;;;;;11.20;99.90;;;;;;5061701;28;20132;-67
2021/03/12 02:52:03;;;;;;;15.30;5.60;;;11.20;99.90;;;;;;5047839;28;20297;-67
2021/03/12 02:55:09;;;;;;;19.50;6.00;;;11.20;99.90;;;;;;5048714;28;20048;-67
2021/03/12 02:58:32;;;;;;;15.77;5.60;;;11.20;99.90;;;;;;5049364;28;20048;-67
2021/03/12 03:01:37;;;;;;;15.57;5.95;;;11.20;99.90;;;;;;5049359;28;20475;-67
2021/03/12 03:04:57;;;;;;;24.00;6.38;;;11.20;99.90;;;;;;5047881;28;20044;-67
2021/03/12 03:08:07;;;;;;;15.05;5.88;;;11.20;99.90;;;;;;5038454;28;20415;-66
2021/03/12 03:11:14;;;;;;;26.42;6.00;;;11.20;99.90;;;;;;5054865;28;20521;-67
2021/03/12 03:14:19;;;;;;;22.75;6.22;;;11.20;99.90;;;;;;5047598;28;20035;-67
2021/03/12 03:17:24;;;;;;;15.43;5.35;;;11.20;99.90;;;;;;5049024;28;20048;-67
2021/03/12 03:20:29;;;;;;;16.77;5.57;;;11.20;99.90;;;;;;5050116;28;20399;-67
2021/03/12 03:23:45;;;;;;;18.60;5.72;;;11.20;99.90;;;;;;5049918;28;20039;-67
2021/03/12 03:26:51;;;;;;;16.35;5.68;;;11.20;99.90;;;;;;5048533;28;20055;-67
2021/03/12 03:29:57;;;;;;;17.33;6.13;;;11.30;99.90;;;;;;5049275;28;20522;-67
2021/03/12 03:33:01;;;;;;;20.52;5.35;;;11.20;99.90;;;;;;5036376;28;20236;-67
2021/03/12 03:36:08;;;;;;;22.60;6.88;;;11.20;99.90;;;;;;5048515;28;20052;-67
2021/03/12 03:39:13;;;;;;;18.50;6.22;;;11.20;99.90;;;;;;5049136;28;20039;-67
2021/03/12 03:42:19;;;;;;;18.15;5.45;;;11.20;99.90;;;;;;5049938;28;20048;-67
2021/03/12 03:45:27;;;;;;;19.63;5.82;;;11.20;99.90;;;;;;5040210;28;20039;-67
2021/03/12 03:48:39;;;;;;;15.85;5.40;;;11.20;99.90;;;;;;5038389;28;20062;-67
2021/03/12 03:51:46;;;;;;;19.45;5.68;;;11.20;99.90;;;;;;5036218;28;20055;-67
2021/03/12 03:54:56;;;;;;;19.55;5.47;;;11.20;99.90;;;;;;5048790;28;20503;-66
2021/03/12 03:58:02;;;;;;;27.33;6.07;;;11.20;99.90;;;;;;5049006;28;20035;-66
2021/03/12 04:01:08;;;;;;;18.08;5.95;;;11.20;99.90;;;;;;5048312;28;20043;-67
2021/03/12 04:04:16;;;;;;;21.45;6.18;;;11.20;99.90;;;;;;5048260;28;20047;-67
2021/03/12 04:07:23;;;;;;;11.88;4.53;;;11.20;99.90;;;;;;5036954;28;20036;-67
2021/03/12 04:10:32;;;;;;;18.77;5.25;;;11.20;99.90;;;;;;5035429;28;20044;-67
2021/03/12 04:13:38;;;;;;;22.00;5.63;;;11.20;99.90;;;;;;5059442;28;20068;-67
2021/03/12 04:16:44;;;;;;;19.40;5.25;;;11.20;99.90;;;;;;5048695;28;20514;-67
2021/03/12 04:19:50;;;;;;;23.10;7.20;;;11.20;99.90;;;;;;5048459;28;20057;-67
2021/03/12 04:22:56;;;;;;;23.30;5.45;;;11.20;99.90;;;;;;5048474;28;20044;-67
2021/03/12 04:26:04;;;;;;;18.55;5.60;;;11.20;99.90;;;;;;5049376;28;20040;-67
2021/03/12 04:29:09;;;;;;;18.77;5.18;;;11.20;99.90;;;;;;5063522;28;20522;-67
2021/03/12 04:32:16;;;;;;;16.73;5.28;;;11.20;99.90;;;;;;5052073;28;20063;-67
2021/03/12 04:35:22;;;;;;;19.67;4.95;;;11.20;99.90;;;;;;5051950;28;20607;-67
2021/03/12 04:38:27;;;;;;;16.77;5.28;;;11.20;99.90;;;;;;5052470;28;20044;-66
2021/03/12 04:41:34;;;;;;;15.75;5.47;;;11.20;99.90;;;;;;5053401;28;20051;-67
2021/03/12 04:44:41;;;;;;;28.05;5.60;;;11.20;99.90;;;;;;5040376;28;20037;-67
2021/03/12 04:47:48;;;;;;;21.02;5.63;;;11.30;99.90;;;;;;5051402;28;20060;-67
2021/03/12 04:50:53;;;;;;;21.75;5.03;;;11.30;99.90;;;;;;5051743;28;20040;-67
2021/03/12 04:53:58;;;;;;;21.52;5.25;;;11.30;99.90;;;;;;5051785;28;20048;-67
2021/03/12 04:57:03;;;;;;;22.13;5.63;;;11.30;99.90;;;;;;5051173;28;20458;-67
2021/03/12 05:00:14;;;;;;;15.82;4.22;;;11.30;99.90;;;;;;5041353;28;20032;-67
2021/03/12 05:03:29;;;;;;;15.05;5.28;;;11.30;99.90;;;;;;5051342;28;20048;-66
2021/03/12 05:06:36;;;;;;;17.33;4.95;;;11.30;99.90;;;;;;5050664;28;20450;-67
2021/03/12 05:09:52;;;;;;;16.42;5.22;;;11.30;99.90;;;;;;5051338;28;20418;-67
2021/03/12 05:12:59;;;;;;;17.80;6.15;;;11.30;99.90;;;;;;5044780;28;20040;-67
2021/03/12 05:16:08;;;;;;;20.23;5.63;;;11.20;99.90;;;;;;5046682;28;20044;-67
2021/03/12 05:19:12;;;;;;;21.35;5.68;;;11.30;99.90;;;;;;5040160;28;20040;-67
2021/03/12 05:22:19;;;;;;;21.48;5.20;;;11.20;99.90;;;;;;5037495;28;20051;-67
2021/03/12 05:25:23;;;;;;;14.98;5.35;;;11.20;99.90;;;;;;5051148;28;20056;-67
2021/03/12 05:28:28;;;;;;;17.20;5.50;;;11.20;99.90;;;;;;5050565;28;20518;-67
2021/03/12 05:31:32;;;;;;;17.08;4.78;;;11.20;99.90;;;;;;5052109;28;20056;-67
2021/03/12 05:34:37;;;;;;;21.40;6.82;;;11.20;99.90;;;;;;5051180;28;20044;-67
2021/03/12 05:37:43;;;;;;;19.42;4.78;;;11.10;99.90;;;;;;5037521;28;20048;-67
2021/03/12 05:40:47;;;;;;;24.13;5.47;;;11.20;99.90;;;;;;5051086;28;20044;-67
2021/03/12 05:43:52;;;;;;;17.60;5.03;;;11.10;99.90;;;;;;5050784;28;20051;-67
2021/03/12 05:46:56;;;;;;;19.30;5.38;;;11.10;99.90;;;;;;5050517;28;20044;-67
2021/03/12 05:50:02;;;;;;;17.95;5.32;;;11.10;99.90;;;;;;5049925;28;20618;-67
2021/03/12 05:53:08;;;;;;;19.00;5.88;;;11.10;99.90;;;;;;5039317;28;20039;-67
2021/03/12 05:56:17;;;;;;;19.70;5.03;;;11.00;99.90;;;;;;5061892;28;20051;-67
2021/03/12 05:59:39;;;;;;;20.23;5.00;;;11.00;99.90;;;;;;5050412;28;20040;-67
2021/03/12 06:02:44;;;;;;;18.08;6.13;;;11.10;99.90;;;;;;5050465;28;20048;-67
2021/03/12 06:05:59;;;;;;;21.50;6.68;;;11.20;99.90;;;;;;5050960;28;20048;-67
2021/03/12 06:09:06;;;;;;;23.02;5.55;;;11.20;99.90;;;;;;5050655;28;20059;-67
2021/03/12 06:12:13;;;;;;;18.33;5.50;;;11.20;99.90;;;;;;5037594;28;20047;-67
2021/03/12 06:15:19;;;;;;;19.60;6.72;;;11.20;99.90;;;;;;5050338;28;20411;-66
2021/03/12 06:18:27;;;;;;;14.18;5.30;;;11.10;99.90;;;;;;5050073;28;20048;-67
2021/03/12 06:21:49;;;;;;;15.15;5.43;;;11.20;99.90;;;;;;5050775;28;20067;-67
2021/03/12 06:25:13;;;;;;;23.52;5.82;;;11.20;99.90;;;;;;5050381;28;20036;-67
2021/03/12 06:28:45;;;;;;;20.38;6.05;;;11.20;99.90;;;;;;5057303;28;20035;-66
2021/03/12 06:31:57;;;;;;;11.15;5.00;;;11.20;99.90;;;;;;5049857;28;20044;-67
2021/03/12 06:35:38;;;;;;;27.17;6.82;;;11.10;99.90;;;;;;5047942;28;20036;-67
2021/03/12 06:39:06;;;;;;;24.15;6.70;;;11.10;99.90;;;;;;5048473;28;20036;-67
2021/03/12 06:42:28;;;;;;;24.17;6.97;;;11.10;99.90;;;;;;5047928;28;20044;-67
2021/03/12 06:45:51;;;;;;;25.60;6.65;;;11.10;99.90;;;;;;5048762;28;20048;-67
2021/03/12 06:49:01;;;;;;;19.40;5.88;;;11.20;99.90;;;;;;5048283;28;20108;-67
2021/03/12 06:52:35;;;;;;;33.80;7.50;;;11.20;99.90;;;;;;5049472;28;20061;-67
2021/03/12 06:55:46;;;;;;;28.52;6.50;;;11.20;99.90;;;;;;5047333;28;20047;-67
2021/03/12 06:59:04;;;;;;;31.90;12.45;;;11.30;99.90;;;;;;5046724;28;20419;-68
2021/03/12 07:02:36;;;;;;;23.88;9.02;;;11.30;99.90;;;;;;5039855;28;20131;-67
2021/03/12 07:05:59;;;;;;;28.85;10.13;;;11.20;99.90;;;;;;5039188;28;20044;-67
2021/03/12 07:09:08;;;;;;;26.58;10.70;;;11.30;99.90;;;;;;5048764;28;20032;-67
2021/03/12 07:12:51;;;;;;;21.90;6.45;;;11.30;99.90;;;;;;5054514;28;20060;-67
2021/03/12 07:15:59;;;;;;;23.58;6.90;;;11.10;99.90;;;;;;5048120;28;20036;-67
2021/03/12 07:19:20;;;;;;;25.75;6.60;;;11.20;99.90;;;;;;5045394;28;20043;-67
2021/03/12 07:22:25;;;;;;;22.70;7.95;;;11.20;99.90;;;;;;5047426;28;20055;-67
2021/03/12 07:25:34;;;;;;;23.90;6.85;;;11.20;99.90;;;;;;5049245;28;20158;-66
2021/03/12 07:28:45;;;;;;;23.33;7.53;;;11.20;99.90;;;;;;5048907;28;20071;-67
2021/03/12 07:32:32;;;;;;;29.05;8.43;;;11.30;99.90;;;;;;5049348;28;20056;-67
2021/03/12 07:35:38;;;;;;;28.90;11.13;;;11.30;99.90;;;;;;5048383;28;20040;-66
2021/03/12 07:39:01;;;;;;;18.83;6.90;;;11.30;99.90;;;;;;5048542;28;20060;-67
2021/03/12 07:42:15;;;;;;;25.63;7.53;;;11.40;99.90;;;;;;5048890;28;20413;-67
2021/03/12 07:45:55;;;;;;;24.13;9.23;;;11.40;99.90;;;;;;5049357;28;20048;-66
2021/03/12 07:49:28;;;;;;;25.20;8.07;;;11.60;99.90;;;;;;5049468;28;20516;-67
2021/03/12 07:52:51;;;;;;;23.75;7.90;;;11.70;99.90;;;;;;5051640;28;20036;-67
2021/03/12 07:56:06;;;;;;;23.20;8.13;;;11.60;99.90;;;;;;5048966;28;20052;-67
2021/03/12 07:59:47;;;;;;;17.33;5.07;;;11.70;99.90;;;;;;5049167;28;20044;-67
2021/03/12 08:03:40;;;;;;;11.52;5.15;;;11.60;99.90;;;;;;5047467;28;20052;-67
2021/03/12 08:07:20;;;;;;;22.90;6.28;;;11.70;99.90;;;;;;5035168;28;20052;-67
2021/03/12 08:10:26;;;;;;;21.50;5.82;;;11.80;99.90;;;;;;5034785;28;20059;-67
2021/03/12 08:13:42;;;;;;;19.00;7.97;;;11.80;99.90;;;;;;5047993;28;20081;-66
2021/03/12 08:16:57;;;;;;;21.88;7.10;;;11.80;99.90;;;;;;5057791;28;20040;-67
2021/03/12 08:20:29;;;;;;;120.53;45.90;;;11.90;99.90;;;;;;5056262;28;20053;-67
2021/03/12 08:23:51;;;;;;;19.38;7.45;;;11.90;99.90;;;;;;5047631;28;20534;-67
2021/03/12 08:27:04;;;;;;;28.42;12.25;;;11.80;99.90;;;;;;5044819;28;20043;-67
2021/03/12 08:30:34;;;;;;;21.50;9.65;;;11.90;99.90;;;;;;5030030;28;20269;-66
2021/03/12 08:33:43;;;;;;;;;;;11.90;99.90;;;;;;5031449;28;20056;-67
2021/03/12 08:37:25;;;;;;;23.55;9.30;;;11.90;99.90;;;;;;5022639;28;19940;-67
2021/03/12 08:40:55;;;;;;;20.30;8.63;;;11.90;99.90;;;;;;5035049;28;20505;-67
2021/03/12 08:44:13;;;;;;;22.20;9.05;;;11.80;99.90;;;;;;5044915;28;20060;-67
2021/03/12 08:47:36;;;;;;;23.13;7.70;;;12.00;99.90;;;;;;5035109;28;20071;-67
2021/03/12 08:50:57;;;;;;;28.02;9.25;;;12.10;99.90;;;;;;5032450;28;20079;-67
2021/03/12 08:54:03;;;;;;;25.03;8.53;;;12.20;99.90;;;;;;5046668;28;20064;-67
2021/03/12 08:57:21;;;;;;;19.58;6.55;;;12.20;99.90;;;;;;5045675;28;20060;-68
2021/03/12 09:00:32;;;;;;;19.25;7.38;;;12.20;99.90;;;;;;5034134;28;20666;-67
2021/03/12 09:03:52;;;;;;;22.70;6.93;;;12.30;99.90;;;;;;5038097;28;20040;-67
2021/03/12 09:07:19;;;;;;;28.13;6.95;;;12.30;99.90;;;;;;5037465;28;20056;-67
2021/03/12 09:10:47;;;;;;;27.67;9.25;;;12.30;99.90;;;;;;5034141;28;20039;-67
2021/03/12 09:14:07;;;;;;;21.65;6.28;;;12.40;99.90;;;;;;5052262;28;20490;-67
2021/03/12 09:17:12;;;;;;;24.85;6.78;;;12.30;99.90;;;;;;5042765;28;20630;-67
2021/03/12 09:20:22;;;;;;;19.13;7.38;;;12.40;99.90;;;;;;5038131;28;20402;-67
2021/03/12 09:23:35;;;;;;;22.65;7.88;;;12.60;99.90;;;;;;5039564;28;20063;-67
2021/03/12 09:26:41;;;;;;;23.23;8.35;;;12.60;99.90;;;;;;5046540;28;20047;-67
2021/03/12 09:30:23;;;;;;;29.00;8.32;;;12.70;99.90;;;;;;5038834;28;20048;-67
2021/03/12 09:33:35;;;;;;;26.67;9.63;;;12.70;99.90;;;;;;5049874;28;20040;-67
2021/03/12 09:36:52;;;;;;;31.48;8.77;;;12.70;99.90;;;;;;5043132;28;20048;-67
2021/03/12 09:40:40;;;;;;;121.00;60.55;;;12.70;99.90;;;;;;5033467;28;20052;-66
2021/03/12 09:44:15;;;;;;;22.85;7.13;;;12.70;99.90;;;;;;5044161;28;20410;-68
2021/03/12 09:47:25;;;;;;;33.10;16.77;;;12.70;99.90;;;;;;5054266;28;20040;-66
2021/03/12 09:50:36;;;;;;;28.35;8.75;;;13.00;99.90;;;;;;5036644;28;20048;-67
2021/03/12 09:53:52;;;;;;;29.48;11.75;;;13.10;99.90;;;;;;5039935;28;20056;-65
2021/03/12 09:57:03;;;;;;;51.87;21.37;;;13.30;99.90;;;;;;5044156;28;20043;-67
2021/03/12 10:00:09;;;;;;;29.02;10.27;;;13.40;99.90;;;;;;5039408;28;20282;-67
2021/03/12 10:03:31;;;;;;;32.95;11.13;;;13.30;99.90;;;;;;5043519;28;20047;-67
2021/03/12 10:07:00;;;;;;;26.27;8.75;;;13.30;99.90;;;;;;5053169;28;20052;-67
2021/03/12 10:10:18;;;;;;;26.05;9.68;;;13.40;99.90;;;;;;5033729;28;20060;-68
2021/03/12 10:13:25;;;;;;;20.88;7.40;;;13.60;99.90;;;;;;5032627;28;20032;-65
2021/03/12 10:16:35;;;;;;;20.58;8.57;;;13.60;99.90;;;;;;5032749;28;20052;-67
2021/03/12 10:19:56;;;;;;;26.35;9.55;;;13.60;99.90;;;;;;5030299;28;20517;-67
2021/03/12 10:23:03;;;;;;;25.52;12.05;;;13.70;99.90;;;;;;5034958;28;20048;-67
2021/03/12 10:26:07;;;;;;;29.13;10.95;;;13.90;99.90;;;;;;5038030;28;20083;-67
2021/03/12 10:29:12;;;;;;;25.48;7.72;;;14.20;99.90;;;;;;5031101;28;20083;-66
2021/03/12 10:32:17;;;;;;;26.80;10.90;;;14.30;99.90;;;;;;5030598;28;20048;-67
2021/03/12 10:35:46;;;;;;;23.35;7.28;;;14.50;99.90;;;;;;5049465;28;20040;-67
2021/03/12 10:38:50;;;;;;;30.55;10.38;;;14.80;99.90;;;;;;5046809;28;20039;-67
2021/03/12 10:42:03;;;;;;;24.75;8.55;;;15.10;99.90;;;;;;5034996;28;20518;-68
2021/03/12 10:45:11;;;;;;;17.20;5.50;;;15.00;99.90;;;;;;5038337;28;20063;-67
2021/03/12 10:48:16;;;;;;;18.92;6.75;;;15.00;99.90;;;;;;5041587;28;20128;-67
2021/03/12 10:51:21;;;;;;;22.30;6.50;;;15.10;99.90;;;;;;5035865;28;20056;-67
2021/03/12 10:54:29;;;;;;;19.30;6.10;;;15.10;99.90;;;;;;5039479;28;20048;-67
2021/03/12 10:57:38;;;;;;;23.55;8.18;;;14.70;99.90;;;;;;5038679;28;20040;-68
2021/03/12 11:00:43;;;;;;;28.35;7.90;;;14.60;99.90;;;;;;5038556;28;20489;-67
2021/03/12 11:03:48;;;;;;;28.35;13.48;;;14.90;99.90;;;;;;5037410;28;20047;-67
2021/03/12 11:06:52;;;;;;;24.00;10.65;;;15.40;99.90;;;;;;5036009;28;20055;-67
2021/03/12 11:09:57;;;;;;;29.13;10.60;;;15.80;99.90;;;;;;5042282;28;20043;-67
2021/03/12 11:13:01;;;;;;;22.35;12.02;;;16.10;99.90;;;;;;5040449;28;20048;-68
2021/03/12 11:16:06;;;;;;;20.17;6.82;;;16.80;99.90;;;;;;5037425;28;20061;-67
2021/03/12 11:19:11;;;;;;;16.58;5.95;;;16.60;99.90;;;;;;5043688;28;20403;-68
2021/03/12 11:22:15;;;;;;;23.58;7.78;;;16.40;99.90;;;;;;5046432;28;20039;-68
2021/03/12 11:25:20;;;;;;;20.42;5.55;;;16.40;99.90;;;;;;5046904;28;20044;-68
2021/03/12 11:28:25;;;;;;;26.88;6.20;;;16.40;99.90;;;;;;5047091;28;20076;-68
2021/03/12 11:31:29;;;;;;;16.30;5.22;;;16.50;99.90;;;;;;5047192;28;20056;-68
2021/03/12 11:34:33;;;;;;;19.83;5.82;;;16.60;99.90;;;;;;5045944;28;20051;-68
2021/03/12 11:37:37;;;;;;;15.63;5.80;;;16.50;99.90;;;;;;5046324;28;20416;-68
2021/03/12 11:40:42;;;;;;;26.77;7.30;;;16.20;99.90;;;;;;5047828;28;20518;-68
2021/03/12 11:43:47;;;;;;;22.42;6.90;;;15.90;99.90;;;;;;5047675;28;20052;-67
2021/03/12 11:46:51;;;;;;;21.20;5.80;;;15.70;99.90;;;;;;5047434;28;20051;-67
2021/03/12 11:49:55;;;;;;;27.67;11.52;;;15.40;99.90;;;;;;5046098;28;21249;-68
2021/03/12 11:53:00;;;;;;;18.70;6.30;;;15.60;99.90;;;;;;5044546;28;20055;-68
2021/03/12 11:56:04;;;;;;;24.73;7.15;;;15.70;99.90;;;;;;5040683;28;20541;-68
2021/03/12 11:59:11;;;;;;;20.88;7.38;;;15.80;99.90;;;;;;5045595;28;20087;-68
2021/03/12 12:02:18;;;;;;;23.75;7.53;;;16.10;99.90;;;;;;5053537;28;20048;-68
2021/03/12 12:05:23;;;;;;;23.92;5.75;;;16.10;99.90;;;;;;5054008;28;20067;-68
2021/03/12 12:08:27;;;;;;;22.83;6.65;;;15.80;99.90;;;;;;5052809;28;20052;-68
2021/03/12 12:11:31;;;;;;;20.23;6.40;;;15.50;99.90;;;;;;5048318;28;20063;-68
2021/03/12 12:14:36;;;;;;;19.10;8.02;;;15.60;99.90;;;;;;5049577;28;20048;-68
2021/03/12 12:17:41;;;;;;;22.98;6.30;;;15.60;99.90;;;;;;5048182;28;20044;-67
2021/03/12 12:20:45;;;;;;;22.00;5.93;;;15.90;99.90;;;;;;5037861;28;20044;-68
2021/03/12 12:23:49;;;;;;;18.15;5.43;;;15.80;99.90;;;;;;5047154;28;20048;-67
2021/03/12 12:26:54;;;;;;;23.92;9.65;;;15.80;99.90;;;;;;5047419;28;20052;-68
2021/03/12 12:29:58;;;;;;;20.15;5.22;;;15.90;99.90;;;;;;5046451;28;20505;-68
2021/03/12 12:33:03;;;;;;;18.67;5.07;;;16.50;99.90;;;;;;5045143;28;20040;-68
2021/03/12 12:36:07;;;;;;;20.95;4.85;;;16.00;99.90;;;;;;5046931;28;20403;-68
2021/03/12 12:39:13;;;;;;;17.10;4.60;;;16.00;99.90;;;;;;5042507;28;20041;-68
2021/03/12 12:42:18;;;;;;;18.48;5.22;;;16.10;99.90;;;;;;5033307;28;20052;-68
2021/03/12 12:45:23;;;;;;;16.35;4.80;;;15.70;99.90;;;;;;5035922;28;20512;-67
2021/03/12 12:48:27;;;;;;;15.23;4.80;;;15.90;99.90;;;;;;5047432;28;20048;-68
2021/03/12 12:51:32;;;;;;;21.38;5.90;;;16.20;99.90;;;;;;5048359;28;20040;-68
2021/03/12 12:54:36;;;;;;;20.92;6.20;;;15.90;99.90;;;;;;5051197;28;20048;-67
2021/03/12 12:57:40;;;;;;;13.18;5.03;;;16.10;99.90;;;;;;5048614;28;20055;-68
2021/03/12 13:00:45;;;;;;;17.73;4.65;;;16.80;99.90;;;;;;5056968;28;20510;-68
2021/03/12 13:03:49;;;;;;;22.42;5.25;;;16.40;99.90;;;;;;5054890;28;20120;-68
2021/03/12 13:06:54;;;;;;;16.70;5.82;;;16.40;99.90;;;;;;5049324;28;20052;-68
2021/03/12 13:09:59;;;;;;;13.57;5.30;;;16.10;99.90;;;;;;5057591;28;20043;-68
2021/03/12 13:13:03;;;;;;;14.43;4.88;;;16.30;99.90;;;;;;5051427;28;20517;-67
2021/03/12 13:16:09;;;;;;;13.57;5.00;;;16.10;99.90;;;;;;5042784;28;20044;-68
2021/03/12 13:19:14;;;;;;;21.05;5.05;;;16.10;99.90;;;;;;5051676;28;20036;-68
2021/03/12 13:22:18;;;;;;;16.50;4.53;;;15.80;99.90;;;;;;5046432;28;20040;-68
2021/03/12 13:25:22;;;;;;;22.42;5.63;;;16.20;99.90;;;;;;5051582;28;20048;-68
2021/03/12 13:28:27;;;;;;;20.42;7.88;;;15.80;99.90;;;;;;5045300;28;20048;-68
2021/03/12 13:31:31;;;;;;;13.77;5.20;;;15.40;99.90;;;;;;5048983;28;20111;-68
2021/03/12 13:34:36;;;;;;;13.48;4.88;;;15.20;99.90;;;;;;5048028;28;20410;-67
2021/03/12 13:37:41;;;;;;;13.23;5.25;;;15.20;99.90;;;;;;5046642;28;20040;-67
2021/03/12 13:40:45;;;;;;;27.85;10.90;;;15.10;99.90;;;;;;5049276;28;20040;-67
2021/03/12 13:43:50;;;;;;;17.83;6.70;;;15.10;99.90;;;;;;5050142;28;20466;-68
2021/03/12 13:46:54;;;;;;;15.25;5.50;;;15.00;99.90;;;;;;5050776;28;20510;-68
2021/03/12 13:49:59;;;;;;;24.58;9.48;;;14.80;99.90;;;;;;5048794;28;20072;-68
2021/03/12 13:53:35;;;;;;;24.02;9.65;;;14.60;99.90;;;;;;5039168;28;20095;-67
2021/03/12 13:56:39;;;;;;;37.80;16.80;;;14.40;99.90;;;;;;5047986;28;20036;-68
2021/03/12 13:59:44;;;;;;;20.33;8.23;;;14.20;99.90;;;;;;5048328;28;20040;-67
2021/03/12 14:02:51;;;;;;;27.88;10.93;;;14.10;99.90;;;;;;5050816;28;20043;-67
2021/03/12 14:05:55;;;;;;;22.85;9.23;;;14.00;99.90;;;;;;5048732;28;20041;-67
2021/03/12 14:08:59;;;;;;;30.05;10.65;;;14.00;99.90;;;;;;5047089;28;20052;-67
2021/03/12 14:12:04;;;;;;;26.95;11.25;;;14.00;99.90;;;;;;5047122;28;20064;-68
2021/03/12 14:15:09;;;;;;;25.15;11.52;;;14.00;99.90;;;;;;5047147;28;20230;-68
2021/03/12 14:18:13;;;;;;;46.20;23.27;;;14.20;99.90;;;;;;5050130;28;20072;-68
2021/03/12 14:21:17;;;;;;;101.68;54.88;;;14.40;99.90;;;;;;5048440;28;20048;-68
2021/03/12 14:24:23;;;;;;;38.13;18.42;;;14.20;99.90;;;;;;5049744;28;20048;-68
2021/03/12 14:27:30;;;;;;;35.53;15.23;;;14.40;99.90;;;;;;5052403;28;20533;-68
2021/03/12 14:30:57;;;;;;;34.13;10.50;;;14.60;99.90;;;;;;5045712;28;20044;-68
2021/03/12 14:34:01;;;;;;;24.75;10.20;;;14.90;99.90;;;;;;5049076;28;20534;-68
2021/03/12 14:37:06;;;;;;;27.55;12.88;;;15.00;99.90;;;;;;5051208;28;20048;-68
2021/03/12 14:40:13;;;;;;;104.53;69.10;;;15.30;99.90;;;;;;5042851;28;20395;-68
2021/03/12 14:43:18;;;;;;;85.03;53.53;;;15.40;99.90;;;;;;5048533;28;20040;-68
2021/03/12 14:46:23;;;;;;;37.33;17.92;;;15.40;99.90;;;;;;5049325;28;20063;-68
2021/03/12 14:49:34;;;;;;;33.63;19.02;;;15.20;99.90;;;;;;5001300;28;20051;-68
2021/03/12 14:52:39;;;;;;;29.23;12.18;;;15.20;99.90;;;;;;5016236;28;20084;-68
2021/03/12 14:55:48;;;;;;;16.63;8.63;;;14.70;99.90;;;;;;5027321;28;20047;-67
2021/03/12 14:58:52;;;;;;;19.27;6.97;;;14.70;99.90;;;;;;5030422;28;20044;-68
2021/03/12 15:01:57;;;;;;;19.10;6.50;;;14.50;99.90;;;;;;5037523;28;20513;-67
2021/03/12 15:05:01;;;;;;;21.52;6.55;;;14.50;99.90;;;;;;5036151;28;20391;-67
2021/03/12 15:08:07;;;;;;;11.65;5.65;;;14.40;99.90;;;;;;5031364;28;20048;-68
2021/03/12 15:11:13;;;;;;;22.02;6.60;;;14.40;99.90;;;;;;5034956;28;20506;-69
2021/03/12 15:14:18;;;;;;;19.77;7.35;;;14.20;99.90;;;;;;5041820;28;20071;-68
2021/03/12 15:17:23;;;;;;;17.85;5.97;;;14.00;99.90;;;;;;5047002;28;20035;-69
2021/03/12 15:20:28;;;;;;;24.58;10.40;;;13.90;99.90;;;;;;5037309;28;20060;-68
2021/03/12 15:23:33;;;;;;;13.10;5.85;;;13.90;99.90;;;;;;5038993;28;20056;-68
2021/03/12 15:26:38;;;;;;;19.33;9.73;;;13.60;99.90;;;;;;5043248;28;20514;-68
2021/03/12 15:29:43;;;;;;;99.63;48.83;;;13.60;99.90;;;;;;5046640;28;20056;-68
2021/03/12 15:32:48;;;;;;;98.75;61.72;;;13.70;99.90;;;;;;5025089;28;20056;-68
2021/03/12 15:35:55;;;;;;;29.95;17.15;;;13.90;99.90;;;;;;5026161;28;20552;-68
2021/03/12 15:39:20;;;;;;;23.92;12.02;;;14.00;99.90;;;;;;5041464;28;20052;-68
2021/03/12 15:42:24;;;;;;;21.60;8.82;;;14.10;99.90;;;;;;5030742;28;20047;-68
2021/03/12 15:45:29;;;;;;;23.63;9.43;;;14.10;99.90;;;;;;5025905;28;20712;-68
2021/03/12 15:48:34;;;;;;;49.85;22.35;;;14.10;99.90;;;;;;5033755;28;20180;-68
2021/03/12 15:51:49;;;;;;;44.47;22.45;;;13.90;99.90;;;;;;5031433;28;20415;-68
2021/03/12 15:54:56;;;;;;;39.05;20.55;;;13.80;99.90;;;;;;5034150;28;20048;-68
2021/03/12 15:58:01;;;;;;;20.77;12.32;;;13.80;99.90;;;;;;5038940;28;20051;-68
2021/03/12 16:01:07;;;;;;;28.52;11.85;;;14.00;99.90;;;;;;5033078;28;20044;-68
2021/03/12 16:04:12;;;;;;;27.65;13.63;;;14.20;99.90;;;;;;5028028;28;20048;-68
2021/03/12 16:07:17;;;;;;;35.40;13.27;;;14.40;99.90;;;;;;5028968;28;20055;-68
2021/03/12 16:10:23;;;;;;;26.98;12.10;;;14.50;99.90;;;;;;5046875;28;20063;-68
2021/03/12 16:13:28;;;;;;;22.23;10.90;;;14.40;99.90;;;;;;5035319;28;20047;-68
2021/03/12 16:16:37;;;;;;;24.70;9.95;;;14.30;99.90;;;;;;5031757;28;20076;-67